createdAt,value
2017-10-26T00:00:21.260Z,16.20
2017-10-26T00:02:47.837Z,16.60
2017-10-26T00:05:14.435Z,15.83
2017-10-26T00:07:41.017Z,17.10
2017-10-26T00:10:07.592Z,14.73
2017-10-26T00:12:34.190Z,15.70
2017-10-26T00:15:00.764Z,15.30
2017-10-26T00:17:27.433Z,14.20
2017-10-26T00:19:54.017Z,15.50
2017-10-26T00:22:20.597Z,15.00
2017-10-26T00:24:47.184Z,15.80
2017-10-26T00:27:13.760Z,14.70
2017-10-26T00:29:40.341Z,15.47
2017-10-26T00:32:06.937Z,14.50
2017-10-26T00:34:33.508Z,15.07
2017-10-26T00:37:00.092Z,15.60
2017-10-26T00:39:26.693Z,14.80
2017-10-26T00:41:53.269Z,16.20
2017-10-26T00:44:19.848Z,16.00
2017-10-26T00:46:46.437Z,15.77
2017-10-26T00:49:13.018Z,16.30
2017-10-26T00:51:39.609Z,15.90
2017-10-26T00:54:06.184Z,15.00
2017-10-26T00:56:32.778Z,15.40
2017-10-26T00:58:59.360Z,15.13
2017-10-26T01:01:25.933Z,16.03
2017-10-26T01:03:52.534Z,15.20
2017-10-26T01:06:19.938Z,16.40
2017-10-26T01:08:46.518Z,16.93
2017-10-26T01:11:13.103Z,16.13
2017-10-26T01:13:39.677Z,16.63
2017-10-26T01:16:06.274Z,16.07
2017-10-26T01:18:32.849Z,15.73
2017-10-26T01:20:59.424Z,16.80
2017-10-26T01:23:26.004Z,16.10
2017-10-26T01:25:52.585Z,15.50
2017-10-26T01:28:19.173Z,15.80
2017-10-26T01:30:45.745Z,16.60
2017-10-26T01:33:12.371Z,16.00
2017-10-26T01:35:38.959Z,15.70
2017-10-26T01:38:05.549Z,16.07
2017-10-26T01:40:32.149Z,15.90
2017-10-26T01:42:58.728Z,16.23
2017-10-26T01:45:25.317Z,16.80
2017-10-26T01:47:51.896Z,16.67
2017-10-26T01:50:18.553Z,16.80
2017-10-26T01:52:45.144Z,15.90
2017-10-26T01:55:11.729Z,15.73
2017-10-26T01:57:38.309Z,16.57
2017-10-26T02:00:04.892Z,15.80
2017-10-26T02:02:31.469Z,15.57
2017-10-26T02:04:58.059Z,16.50
2017-10-26T02:07:24.668Z,17.00
2017-10-26T02:09:51.260Z,16.10
2017-10-26T02:12:17.852Z,16.30
2017-10-26T02:14:44.457Z,16.33
2017-10-26T02:17:11.032Z,16.60
2017-10-26T02:19:37.613Z,15.07
2017-10-26T02:22:04.197Z,15.13
2017-10-26T02:24:30.831Z,14.90
2017-10-26T02:26:57.397Z,16.43
2017-10-26T02:29:29.816Z,15.80
2017-10-26T02:31:56.397Z,15.70
2017-10-26T02:34:23.004Z,15.33
2017-10-26T02:36:49.593Z,15.60
2017-10-26T02:39:16.177Z,15.93
2017-10-26T02:41:42.772Z,15.73
2017-10-26T02:44:09.349Z,17.10
2017-10-26T02:46:35.929Z,16.20
2017-10-26T02:49:02.505Z,16.17
2017-10-26T02:51:29.129Z,15.53
2017-10-26T02:53:55.747Z,17.27
2017-10-26T02:56:22.328Z,16.70
2017-10-26T02:58:48.906Z,16.67
2017-10-26T03:01:15.489Z,16.40
2017-10-26T03:03:42.076Z,15.67
2017-10-26T03:06:08.666Z,17.00
2017-10-26T03:08:35.247Z,16.40
2017-10-26T03:11:01.865Z,16.13
2017-10-26T03:13:28.492Z,16.60
2017-10-26T03:15:55.068Z,16.33
2017-10-26T03:18:21.655Z,15.93
2017-10-26T03:20:48.228Z,15.90
2017-10-26T03:23:14.810Z,17.37
2017-10-26T03:25:41.388Z,15.90
2017-10-26T03:28:07.980Z,17.27
2017-10-26T03:30:34.615Z,16.10
2017-10-26T03:33:01.197Z,15.70
2017-10-26T03:35:27.776Z,13.73
2017-10-26T03:37:54.361Z,13.13
2017-10-26T03:40:20.941Z,13.17
2017-10-26T03:42:47.537Z,13.40
2017-10-26T03:45:14.119Z,14.17
2017-10-26T03:47:40.705Z,14.70
2017-10-26T03:50:07.292Z,14.83
2017-10-26T03:52:33.868Z,14.50
2017-10-26T03:55:00.858Z,13.23
2017-10-26T03:57:27.420Z,13.30
2017-10-26T03:59:53.997Z,14.70
2017-10-26T04:02:20.580Z,14.57
2017-10-26T04:04:47.159Z,14.50
2017-10-26T04:07:13.768Z,15.20
2017-10-26T04:09:40.354Z,14.20
2017-10-26T04:12:06.937Z,14.97
2017-10-26T04:14:33.519Z,15.27
2017-10-26T04:17:00.109Z,14.70
2017-10-26T04:19:26.692Z,15.20
2017-10-26T04:21:53.289Z,14.23
2017-10-26T04:24:19.877Z,15.03
2017-10-26T04:26:46.486Z,14.57
2017-10-26T04:29:13.045Z,14.87
2017-10-26T04:31:39.639Z,14.70
2017-10-26T04:34:06.221Z,14.50
2017-10-26T04:36:32.800Z,15.30
2017-10-26T04:38:59.390Z,14.20
2017-10-26T04:41:25.973Z,14.67
2017-10-26T04:43:52.588Z,14.70
2017-10-26T04:46:19.168Z,14.57
2017-10-26T04:48:45.752Z,14.23
2017-10-26T04:51:12.336Z,14.57
2017-10-26T04:53:38.913Z,13.50
2017-10-26T04:56:05.508Z,15.17
2017-10-26T04:58:32.088Z,14.00
2017-10-26T05:00:58.698Z,13.20
2017-10-26T05:03:25.276Z,13.87
2017-10-26T05:05:51.857Z,14.60
2017-10-26T05:08:18.440Z,14.60
2017-10-26T05:10:45.037Z,14.80
2017-10-26T05:13:11.604Z,14.23
2017-10-26T05:15:38.192Z,14.57
2017-10-26T05:18:04.781Z,14.40
2017-10-26T05:20:31.349Z,13.73
2017-10-26T05:22:58.014Z,14.50
2017-10-26T05:25:24.588Z,13.67
2017-10-26T05:27:51.173Z,14.47
2017-10-26T05:30:17.763Z,13.33
2017-10-26T05:32:44.351Z,13.60
2017-10-26T05:35:10.924Z,14.27
2017-10-26T05:37:37.509Z,14.20
2017-10-26T05:40:04.120Z,13.70
2017-10-26T05:42:30.717Z,14.20
2017-10-26T05:44:57.300Z,13.17
2017-10-26T05:47:23.882Z,12.63
2017-10-26T05:49:50.460Z,13.30
2017-10-26T05:52:17.044Z,12.60
2017-10-26T05:54:43.633Z,12.60
2017-10-26T05:57:10.212Z,12.00
2017-10-26T05:59:36.788Z,12.73
2017-10-26T06:02:04.148Z,12.00
2017-10-26T06:04:30.725Z,12.60
2017-10-26T06:06:57.305Z,12.10
2017-10-26T06:09:23.897Z,11.60
2017-10-26T06:11:50.476Z,11.60
2017-10-26T06:14:17.056Z,12.40
2017-10-26T06:16:43.648Z,11.73
2017-10-26T06:19:16.028Z,12.87
2017-10-26T06:21:42.621Z,11.90
2017-10-26T06:24:09.232Z,13.17
2017-10-26T06:26:35.812Z,12.43
2017-10-26T06:29:02.396Z,13.00
2017-10-26T06:31:28.988Z,13.60
2017-10-26T06:33:55.569Z,12.57
2017-10-26T06:36:22.148Z,12.77
2017-10-26T06:38:48.737Z,12.57
2017-10-26T06:41:15.317Z,12.40
2017-10-26T06:43:41.896Z,11.83
2017-10-26T06:46:08.491Z,12.10
2017-10-26T06:48:35.077Z,11.90
2017-10-26T06:51:01.659Z,11.27
2017-10-26T06:53:28.274Z,11.50
2017-10-26T06:55:54.857Z,10.40
2017-10-26T06:58:21.441Z,9.70
2017-10-26T07:00:48.028Z,10.40
2017-10-26T07:03:14.608Z,10.30
2017-10-26T07:05:41.188Z,11.10
2017-10-26T07:08:07.780Z,11.03
2017-10-26T07:10:34.405Z,10.50
2017-10-26T07:13:00.974Z,10.17
2017-10-26T07:15:27.552Z,9.80
2017-10-26T07:17:54.176Z,9.17
2017-10-26T07:20:20.767Z,9.67
2017-10-26T07:22:47.332Z,8.90
2017-10-26T07:25:13.936Z,11.10
2017-10-26T07:27:46.578Z,9.00
2017-10-26T07:30:13.160Z,9.23
2017-10-26T07:32:39.769Z,9.30
2017-10-26T07:35:06.365Z,9.13
2017-10-26T07:37:32.936Z,8.57
2017-10-26T07:39:59.676Z,9.23
2017-10-26T07:42:26.253Z,8.67
2017-10-26T07:44:52.824Z,9.40
2017-10-26T07:47:19.400Z,8.77
2017-10-26T07:49:46.022Z,9.67
2017-10-26T07:52:12.624Z,8.40
2017-10-26T07:54:39.200Z,8.43
2017-10-26T07:57:05.837Z,8.07
2017-10-26T07:59:32.432Z,8.57
2017-10-26T08:01:59.015Z,7.93
2017-10-26T08:04:25.610Z,8.87
2017-10-26T08:06:52.176Z,8.47
2017-10-26T08:09:18.782Z,8.60
2017-10-26T08:11:45.352Z,9.30
2017-10-26T08:14:11.936Z,7.80
2017-10-26T08:16:38.513Z,8.30
2017-10-26T08:19:05.088Z,7.60
2017-10-26T08:21:31.665Z,7.30
2017-10-26T08:23:58.248Z,8.00
2017-10-26T08:26:24.821Z,7.80
2017-10-26T08:28:51.397Z,7.80
2017-10-26T08:31:17.980Z,7.73
2017-10-26T08:33:44.549Z,6.90
2017-10-26T08:36:11.124Z,7.20
2017-10-26T08:38:37.708Z,7.27
2017-10-26T08:41:04.284Z,7.17
2017-10-26T08:43:30.852Z,7.50
2017-10-26T08:45:57.453Z,8.20
2017-10-26T08:48:24.012Z,6.70
2017-10-26T08:50:50.581Z,6.50
2017-10-26T08:53:17.159Z,6.00
2017-10-26T08:55:43.733Z,6.03
2017-10-26T08:58:17.904Z,5.33
2017-10-26T09:00:44.472Z,6.00
2017-10-26T09:03:11.063Z,5.50
2017-10-26T09:05:37.693Z,5.37
2017-10-26T09:08:04.305Z,5.13
2017-10-26T09:10:30.888Z,4.27
2017-10-26T09:12:57.476Z,4.20
2017-10-26T09:15:24.061Z,4.20
2017-10-26T09:17:50.636Z,4.37
2017-10-26T09:20:17.205Z,4.40
2017-10-26T09:22:43.780Z,4.33
2017-10-26T09:25:10.385Z,4.00
2017-10-26T09:27:37.020Z,5.33
2017-10-26T09:30:03.616Z,4.40
2017-10-26T09:32:30.202Z,4.07
2017-10-26T09:34:56.764Z,4.37
2017-10-26T09:37:23.333Z,4.07
2017-10-26T09:39:49.906Z,4.00
2017-10-26T09:42:16.544Z,4.03
2017-10-26T09:44:43.197Z,5.37
2017-10-26T09:47:09.752Z,4.10
2017-10-26T09:49:36.336Z,4.23
2017-10-26T09:52:02.904Z,4.47
2017-10-26T09:54:29.473Z,3.70
2017-10-26T09:56:56.051Z,3.47
2017-10-26T09:59:29.297Z,3.70
2017-10-26T10:01:55.871Z,3.97
2017-10-26T10:04:22.445Z,3.70
2017-10-26T10:06:49.052Z,3.83
2017-10-26T10:09:16.675Z,4.40
2017-10-26T10:11:43.243Z,4.60
2017-10-26T10:14:09.879Z,4.27
2017-10-26T10:16:36.443Z,4.43
2017-10-26T10:19:03.017Z,3.73
2017-10-26T10:21:29.605Z,4.50
2017-10-26T10:23:56.184Z,4.03
2017-10-26T10:26:22.753Z,4.00
2017-10-26T10:28:49.324Z,3.93
2017-10-26T10:31:15.917Z,4.10
2017-10-26T10:33:42.486Z,4.37
2017-10-26T10:36:09.091Z,4.10
2017-10-26T10:38:35.675Z,4.57
2017-10-26T10:41:02.241Z,4.00
2017-10-26T10:43:28.820Z,3.93
2017-10-26T10:45:55.393Z,4.43
2017-10-26T10:48:21.976Z,4.80
2017-10-26T10:50:48.544Z,3.50
2017-10-26T10:53:15.132Z,4.10
2017-10-26T10:55:41.716Z,4.43
2017-10-26T10:58:08.288Z,4.37
2017-10-26T11:00:34.868Z,5.67
2017-10-26T11:03:01.437Z,9.23
2017-10-26T11:05:28.066Z,4.67
2017-10-26T11:07:54.632Z,4.37
2017-10-26T11:10:21.209Z,4.40
2017-10-26T11:12:47.787Z,3.90
2017-10-26T11:15:14.373Z,4.20
2017-10-26T11:17:40.948Z,4.00
2017-10-26T11:20:07.523Z,4.53
2017-10-26T11:22:34.236Z,4.70
2017-10-26T11:25:01.673Z,4.43
2017-10-26T11:27:28.222Z,4.87
2017-10-26T11:29:54.799Z,5.40
2017-10-26T11:32:21.375Z,4.40
2017-10-26T11:34:47.995Z,4.60
2017-10-26T11:37:14.570Z,4.43
2017-10-26T11:39:41.153Z,4.60
2017-10-26T11:42:07.729Z,4.40
2017-10-26T11:44:34.297Z,4.43
2017-10-26T11:47:00.877Z,4.53
2017-10-26T11:49:27.447Z,4.47
2017-10-26T11:51:54.026Z,4.60
2017-10-26T11:54:20.692Z,5.90
2017-10-26T11:56:47.256Z,5.00
2017-10-26T11:59:13.829Z,4.57
2017-10-26T12:01:40.472Z,4.50
2017-10-26T12:04:07.048Z,4.80
2017-10-26T12:06:33.626Z,5.23
2017-10-26T12:09:00.227Z,4.87
2017-10-26T12:11:26.800Z,4.50
2017-10-26T12:13:53.368Z,4.67
2017-10-26T12:16:19.953Z,4.67
2017-10-26T12:18:46.522Z,5.13
2017-10-26T12:21:13.088Z,4.37
2017-10-26T12:23:39.688Z,4.10
2017-10-26T12:26:06.274Z,3.90
2017-10-26T12:28:32.833Z,4.07
2017-10-26T12:30:59.415Z,4.07
2017-10-26T12:33:25.985Z,4.00
2017-10-26T12:35:52.571Z,4.00
2017-10-26T12:38:19.139Z,4.50
2017-10-26T12:40:45.712Z,4.33
2017-10-26T12:43:12.292Z,5.17
2017-10-26T12:45:38.863Z,5.30
2017-10-26T12:48:05.456Z,4.37
2017-10-26T12:50:32.024Z,5.77
2017-10-26T12:52:58.598Z,5.07
2017-10-26T12:55:25.173Z,4.50
2017-10-26T12:57:51.740Z,5.50
2017-10-26T13:00:18.324Z,6.17
2017-10-26T13:02:44.896Z,5.33
2017-10-26T13:05:11.492Z,5.50
2017-10-26T13:07:38.054Z,5.73
2017-10-26T13:10:04.622Z,5.17
2017-10-26T13:12:31.204Z,6.23
2017-10-26T13:14:57.773Z,4.93
2017-10-26T13:17:24.341Z,6.47
2017-10-26T13:19:50.993Z,5.63
2017-10-26T13:22:17.588Z,4.60
2017-10-26T13:24:44.159Z,4.90
2017-10-26T13:27:10.811Z,4.97
2017-10-26T13:29:37.366Z,4.83
2017-10-26T13:32:03.946Z,5.30
2017-10-26T13:34:30.531Z,5.13
2017-10-26T13:36:57.101Z,5.20
2017-10-26T13:39:23.676Z,5.50
2017-10-26T13:41:50.288Z,4.70
2017-10-26T13:44:16.844Z,4.93
2017-10-26T13:46:43.412Z,5.13
2017-10-26T13:49:09.992Z,4.30
2017-10-26T13:51:36.564Z,4.50
2017-10-26T13:54:03.137Z,5.00
2017-10-26T13:56:29.716Z,5.00
2017-10-26T13:58:56.325Z,4.80
2017-10-26T14:01:22.897Z,4.67
2017-10-26T14:03:49.468Z,5.43
2017-10-26T14:06:16.044Z,5.40
2017-10-26T14:08:42.624Z,5.77
2017-10-26T14:11:09.196Z,6.00
2017-10-26T14:13:35.800Z,5.63
2017-10-26T14:16:02.397Z,5.17
2017-10-26T14:18:28.953Z,5.07
2017-10-26T14:20:55.532Z,5.13
2017-10-26T14:23:22.104Z,5.80
2017-10-26T14:25:48.696Z,4.80
2017-10-26T14:28:15.270Z,5.27
2017-10-26T14:30:41.859Z,5.20
2017-10-26T14:33:09.449Z,5.20
2017-10-26T14:35:36.017Z,4.93
2017-10-26T14:38:02.600Z,4.93
2017-10-26T14:40:29.173Z,4.93
2017-10-26T14:42:55.753Z,4.90
2017-10-26T14:45:22.316Z,5.03
2017-10-26T14:47:48.892Z,5.87
2017-10-26T14:50:15.476Z,5.20
2017-10-26T14:52:42.049Z,5.00
2017-10-26T14:55:08.617Z,4.67
2017-10-26T14:57:35.198Z,5.07
2017-10-26T15:00:01.778Z,4.60
2017-10-26T15:02:28.353Z,5.10
2017-10-26T15:04:54.932Z,5.03
2017-10-26T15:07:21.540Z,4.90
2017-10-26T15:09:48.123Z,5.07
2017-10-26T15:12:14.689Z,4.73
2017-10-26T15:14:41.272Z,5.30
2017-10-26T15:17:07.845Z,5.07
2017-10-26T15:19:34.412Z,5.17
2017-10-26T15:22:00.988Z,4.93
2017-10-26T15:24:27.564Z,5.30
2017-10-26T15:26:54.166Z,5.03
2017-10-26T15:29:20.748Z,5.23
2017-10-26T15:31:47.308Z,5.13
2017-10-26T15:34:13.890Z,5.57
2017-10-26T15:36:40.464Z,5.67
2017-10-26T15:39:07.071Z,7.67
2017-10-26T15:41:33.636Z,5.40
2017-10-26T15:44:00.218Z,6.20
2017-10-26T15:46:26.789Z,5.33
2017-10-26T15:48:53.365Z,5.40
2017-10-26T15:51:19.952Z,6.03
2017-10-26T15:53:46.523Z,5.27
2017-10-26T15:56:13.092Z,5.70
2017-10-26T15:58:39.669Z,5.23
2017-10-26T16:01:06.350Z,5.00
2017-10-26T16:03:32.903Z,4.87
2017-10-26T16:05:59.555Z,5.50
2017-10-26T16:08:26.118Z,5.70
2017-10-26T16:10:52.737Z,5.10
2017-10-26T16:13:19.304Z,5.50
2017-10-26T16:15:45.885Z,5.03
2017-10-26T16:18:12.461Z,5.70
2017-10-26T16:20:39.148Z,5.13
2017-10-26T16:23:05.793Z,6.47
2017-10-26T16:25:32.360Z,6.73
2017-10-26T16:27:58.940Z,6.70
2017-10-26T16:30:25.508Z,7.47
2017-10-26T16:32:52.190Z,7.27
2017-10-26T16:35:18.840Z,7.13
2017-10-26T16:37:45.392Z,7.70
2017-10-26T16:40:11.973Z,7.93
2017-10-26T16:42:38.564Z,7.87
2017-10-26T16:45:05.140Z,8.53
2017-10-26T16:47:31.725Z,8.77
2017-10-26T16:49:58.288Z,9.77
2017-10-26T16:52:24.900Z,10.17
2017-10-26T16:54:51.449Z,9.30
2017-10-26T16:57:18.051Z,10.70
2017-10-26T16:59:44.640Z,11.20
2017-10-26T17:02:11.277Z,11.90
2017-10-26T17:04:38.379Z,11.73
2017-10-26T17:07:04.958Z,12.73
2017-10-26T17:09:31.541Z,12.27
2017-10-26T17:11:58.124Z,10.80
2017-10-26T17:14:24.788Z,10.43
2017-10-26T17:16:51.364Z,11.00
2017-10-26T17:19:17.951Z,11.37
2017-10-26T17:21:44.527Z,10.40
2017-10-26T17:24:20.988Z,11.30
2017-10-26T17:26:47.564Z,11.43
2017-10-26T17:29:14.183Z,12.30
2017-10-26T17:31:40.761Z,12.27
2017-10-26T17:34:07.344Z,12.93
2017-10-26T17:36:33.933Z,12.53
2017-10-26T17:39:00.510Z,12.53
2017-10-26T17:41:27.119Z,12.67
2017-10-26T17:43:53.721Z,12.90
2017-10-26T17:46:20.305Z,11.80
2017-10-26T17:48:46.884Z,12.20
2017-10-26T17:51:13.482Z,11.43
2017-10-26T17:53:40.072Z,11.60
2017-10-26T17:56:06.661Z,11.50
2017-10-26T17:58:33.232Z,11.83
2017-10-26T18:00:59.820Z,13.10
2017-10-26T18:03:26.416Z,15.43
2017-10-26T18:05:53.008Z,13.37
2017-10-26T18:08:19.593Z,13.87
2017-10-26T18:10:49.841Z,12.30
2017-10-26T18:13:16.434Z,13.97
2017-10-26T18:15:43.009Z,13.70
2017-10-26T18:18:09.588Z,11.50
2017-10-26T18:20:36.181Z,10.10
2017-10-26T18:23:02.755Z,9.50
2017-10-26T18:25:29.366Z,10.13
2017-10-26T18:28:02.432Z,9.90
2017-10-26T18:30:29.077Z,9.50
2017-10-26T18:32:55.697Z,10.43
2017-10-26T18:35:22.277Z,10.63
2017-10-26T18:37:49.126Z,11.32
2017-10-26T18:40:15.777Z,10.50
2017-10-26T18:42:42.372Z,10.93
2017-10-26T18:45:09.034Z,10.60
2017-10-26T18:47:35.613Z,9.93
2017-10-26T18:50:02.305Z,10.17
2017-10-26T18:52:28.896Z,10.10
2017-10-26T18:54:55.474Z,9.87
2017-10-26T18:57:22.057Z,11.17
2017-10-26T18:59:48.676Z,10.40
2017-10-26T19:02:15.244Z,10.30
2017-10-26T19:04:41.829Z,10.30
2017-10-26T19:07:08.411Z,10.67
2017-10-26T19:09:34.992Z,10.13
2017-10-26T19:12:01.572Z,9.93
2017-10-26T19:14:28.150Z,10.67
2017-10-26T19:16:54.766Z,10.70
2017-10-26T19:19:21.355Z,10.20
2017-10-26T19:21:53.794Z,11.30
2017-10-26T19:24:20.461Z,10.37
2017-10-26T19:26:47.049Z,10.73
2017-10-26T19:29:13.632Z,10.90
2017-10-26T19:31:40.307Z,11.70
2017-10-26T19:34:06.892Z,11.37
2017-10-26T19:36:33.503Z,13.57
2017-10-26T19:39:00.128Z,11.03
2017-10-26T19:41:26.712Z,11.23
2017-10-26T19:43:53.288Z,12.40
2017-10-26T19:46:19.873Z,12.50
2017-10-26T19:48:46.452Z,12.10
2017-10-26T19:51:13.038Z,12.17
2017-10-26T19:53:39.630Z,13.90
2017-10-26T19:56:06.220Z,13.23
2017-10-26T19:58:32.792Z,12.80
2017-10-26T20:00:59.381Z,14.50
2017-10-26T20:03:25.955Z,14.93
2017-10-26T20:05:52.532Z,17.00
2017-10-26T20:08:19.120Z,15.90
2017-10-26T20:10:45.717Z,16.40
2017-10-26T20:13:19.637Z,16.97
2017-10-26T20:15:46.208Z,19.63
2017-10-26T20:18:12.802Z,17.00
2017-10-26T20:20:39.380Z,19.33
2017-10-26T20:23:05.984Z,17.70
2017-10-26T20:25:32.568Z,17.47
2017-10-26T20:27:59.145Z,16.83
2017-10-26T20:30:25.736Z,18.93
2017-10-26T20:32:52.360Z,17.10
2017-10-26T20:35:19.057Z,17.23
2017-10-26T20:37:45.625Z,17.60
2017-10-26T20:40:12.493Z,17.27
2017-10-26T20:42:39.117Z,17.20
2017-10-26T20:45:05.676Z,17.67
2017-10-26T20:47:32.315Z,18.10
2017-10-26T20:50:04.623Z,17.90
2017-10-26T20:52:37.063Z,18.47
2017-10-26T20:55:09.505Z,17.53
2017-10-26T20:57:41.845Z,18.87
2017-10-26T21:00:14.068Z,18.07
2017-10-26T21:02:46.324Z,21.57
2017-10-26T21:05:18.537Z,17.90
2017-10-26T21:07:50.781Z,19.87
2017-10-26T21:10:23.245Z,18.53
2017-10-26T21:12:55.521Z,18.77
2017-10-26T21:15:22.095Z,21.20
2017-10-26T21:17:48.673Z,17.13
2017-10-26T21:20:15.277Z,19.13
2017-10-26T21:22:41.893Z,17.00
2017-10-26T21:25:08.564Z,18.80
2017-10-26T21:27:35.145Z,18.40
2017-10-26T21:30:01.722Z,19.13
2017-10-26T21:32:28.300Z,18.63
2017-10-26T21:34:54.881Z,18.90
2017-10-26T21:37:21.464Z,20.20
2017-10-26T21:39:48.059Z,19.80
2017-10-26T21:42:14.680Z,21.00
2017-10-26T21:44:41.267Z,20.47
2017-10-26T21:47:07.862Z,22.23
2017-10-26T21:49:34.492Z,21.60
2017-10-26T21:52:01.072Z,22.47
2017-10-26T21:54:27.663Z,21.63
2017-10-26T21:56:54.353Z,24.30
2017-10-26T21:59:20.972Z,23.67
2017-10-26T22:01:47.545Z,23.57
2017-10-26T22:04:14.129Z,24.37
2017-10-26T22:06:40.712Z,24.80
2017-10-26T22:09:07.319Z,24.63
2017-10-26T22:11:33.894Z,25.53
2017-10-26T22:14:00.501Z,27.20
2017-10-26T22:16:27.100Z,26.00
2017-10-26T22:18:53.688Z,29.00
2017-10-26T22:21:20.268Z,29.83
2017-10-26T22:23:46.853Z,29.77
2017-10-26T22:26:13.432Z,30.43
2017-10-26T22:28:40.022Z,30.10
2017-10-26T22:31:06.596Z,29.93
2017-10-26T22:33:33.245Z,30.83
2017-10-26T22:35:59.819Z,31.83
2017-10-26T22:38:26.396Z,33.63
2017-10-26T22:40:52.984Z,33.27
2017-10-26T22:43:19.564Z,33.10
2017-10-26T22:45:46.149Z,35.90
2017-10-26T22:48:12.728Z,21.80
2017-10-26T22:50:39.332Z,16.50
2017-10-26T22:53:05.958Z,16.23
2017-10-26T22:55:32.517Z,16.40
2017-10-26T22:57:59.108Z,16.90
2017-10-26T23:00:25.693Z,17.97
2017-10-26T23:02:52.274Z,17.20
2017-10-26T23:05:18.852Z,17.90
2017-10-26T23:07:45.912Z,19.47
2017-10-26T23:10:12.493Z,18.27
2017-10-26T23:12:39.072Z,19.97
2017-10-26T23:15:05.666Z,21.53
2017-10-26T23:17:32.242Z,22.10
2017-10-26T23:19:58.816Z,22.50
2017-10-26T23:22:25.413Z,22.13
2017-10-26T23:24:51.997Z,22.43
2017-10-26T23:27:18.575Z,21.27
2017-10-26T23:29:45.166Z,22.07
2017-10-26T23:32:11.779Z,22.30
2017-10-26T23:34:38.352Z,22.10
2017-10-26T23:37:04.932Z,23.10
2017-10-26T23:39:31.520Z,21.07
2017-10-26T23:41:58.102Z,21.50
2017-10-26T23:44:24.680Z,21.60
2017-10-26T23:46:51.268Z,21.83
2017-10-26T23:49:17.868Z,22.40
2017-10-26T23:51:44.449Z,21.87
2017-10-26T23:54:11.032Z,22.30
2017-10-26T23:56:37.616Z,21.93
2017-10-26T23:59:04.205Z,22.87
